ADDS METAR Data INFO
IDs: Format: Raw Decoded Include TAF

Data at: 1848 UTC 17 Oct 2017

KUKI 171756Z AUTO 00000KT 9SM CLR 15/M01 A3015 RMK AO2 SLP206 T01501011 10150 20028 58001
KUKI 171656Z AUTO 00000KT 7SM CLR 10/00 A3016 RMK AO2 SLP210 T01000000
KUKI 171556Z AUTO 00000KT 8SM CLR 07/M02 A3016 RMK AO2 SLP209 T00721017
KUKI 171456Z AUTO 00000KT 8SM CLR 03/01 A3015 RMK AO2 SLP208 T00330006 53015
KUKI 171356Z AUTO 00000KT 10SM CLR 03/01 A3014 RMK AO2 SLP201 T00330006
KUKI 171256Z AUTO 00000KT 10SM CLR 04/01 A3012 RMK AO2 SLP195 T00390011
KUKI 171156Z AUTO 00000KT 10SM CLR 04/02 A3011 RMK AO2 SLP190 T00390017 10100 20039 58004
KUKI 171056Z AUTO 00000KT 10SM CLR 06/01 A3011 RMK AO2 SLP191 T00560011
KUKI 170956Z AUTO 00000KT 10SM CLR 07/02 A3012 RMK AO2 SLP194 T00670017
KUKI 170856Z AUTO 00000KT 10SM CLR 07/03 A3012 RMK AO2 SLP194 T00720028 51004
KUKI 170756Z AUTO 00000KT 10SM CLR 09/02 A3012 RMK AO2 SLP193 T00890022 403000033
KUKI 170656Z AUTO 00000KT 10SM CLR 09/03 A3011 RMK AO2 SLP193 T00940033
KUKI 170556Z AUTO 00000KT 10SM CLR 10/04 A3011 RMK AO2 SLP192 T01000039 10283 20100 51013
KUKI 170456Z AUTO 00000KT 10SM CLR 12/04 A3010 RMK AO2 SLP189 T01170044
KUKI 170356Z AUTO 00000KT 10SM CLR 14/02 A3008 RMK AO2 SLP184 T01440022
KUKI 170256Z AUTO 00000KT 10SM CLR 18/M01 A3007 RMK AO2 SLP179 T01781006 53003
KUKI 170156Z AUTO 00000KT 10SM CLR 21/00 A3006 RMK AO2 SLP175 T02110000
KUKI 170056Z AUTO 00000KT 6SM HZ CLR 24/00 A3005 RMK AO2 SLP172 T02390000
KUKI 162356Z AUTO 29003KT 10SM CLR 28/M02 A3006 RMK AO2 SLP174 T02831022 10300 20156 56018
KUKI 162256Z AUTO 00000KT 10SM CLR 28/M04 A3007 RMK AO2 SLP177 T02831044
KUKI 162156Z AUTO 00000KT 10SM CLR 28/M04 A3009 RMK AO2 SLP183 T02781044
KUKI 162056Z AUTO 00000KT 9SM CLR 26/M04 A3011 RMK AO2 SLP192 T02561039 58031
KUKI 161956Z AUTO 00000KT 5SM HZ CLR 24/M03 A3015 RMK AO2 SLP204 T02391028
KUKI 161856Z AUTO 35004KT 4SM HZ CLR 20/M02 A3018 RMK AO2 SLP215 T02001022
KUKI 161756Z AUTO VRB03KT 4SM HZ CLR 16/M01 A3021 RMK AO2 SLP226 T01561006 10156 20033 50000
KUKI 161656Z AUTO 00000KT 5SM HZ CLR 12/00 A3022 RMK AO2 SLP230 T01220000
KUKI 161556Z AUTO 00000KT 5SM HZ CLR 07/01 A3022 RMK AO2 SLP232 T00720006
KUKI 161456Z AUTO 11003KT 6SM HZ CLR 03/01 A3021 RMK AO2 SLP226 T00330006 53010
KUKI 161356Z AUTO 00000KT 10SM CLR 05/01 A3019 RMK AO2 SLP221 T00500006
KUKI 161256Z AUTO 00000KT 10SM CLR 04/01 A3018 RMK AO2 SLP217 T00440011
KUKI 161156Z AUTO 00000KT 10SM CLR 05/01 A3018 RMK AO2 SLP213 T00500011 10111 20039 55002
KUKI 161056Z AUTO 00000KT 10SM CLR 04/02 A3018 RMK AO2 SLP213 T00440017
KUKI 160956Z AUTO 00000KT 10SM CLR 06/03 A3018 RMK AO2 SLP215 T00560028
KUKI 160856Z AUTO 00000KT 10SM CLR 07/03 A3018 RMK AO2 SLP216 T00720028 51004
KUKI 160756Z AUTO 00000KT 10SM CLR 08/02 A3018 RMK AO2 SLP214 T00830022 403000022
KUKI 160656Z AUTO 00000KT 10SM CLR 08/03 A3018 RMK AO2 SLP214 T00830033